Time;durP1;ratioP1;P1;durP2;ratioP2;P2;SDS_P1;SDS_P2;PMS_P1;PMS_P2;Temp;Humidity;BMP_temperature;BMP_pressure;BME280_temperature;BME280_humidity;BME280_pressure;Samples;Min_cycle;Max_cycle;Signal;HPM_P1;HPM_P2
2023/08/08 07:44:17;;;;;;;;;;;;;;;;;;5025627;23;19922;-84
2023/08/08 07:46:42;;;;;;;;;;;;;;;;;;4957371;29;19918;-85
2023/08/08 07:49:09;;;;;;;;;;;;;;;;;;4940122;29;19966;-84
2023/08/08 09:05:25;;;;;;;;;;;;;;;;;;4966267;28;20372;-91
2023/08/08 09:07:51;;;;;;;;;;;;;;;;;;4956179;28;20017;-83
2023/08/08 09:10:17;;;;;;;;;;;;;;;;;;4956837;28;19922;-90
2023/08/08 09:12:42;;;;;;;;;;;;;;;;;;4956182;28;19940;-83
2023/08/08 09:15:09;;;;;;;;;;;;;;;;;;4956249;29;19966;-83
2023/08/08 09:17:34;;;;;;;;;;;;;;;;;;4956164;28;20005;-83
2023/08/08 09:19:59;;;;;;;;;;;;;;;;;;4956111;28;19961;-82
2023/08/08 09:22:26;;;;;;;;;;;;;;;;;;4954678;28;19914;-79
2023/08/08 09:24:52;;;;;;;;;;;;;;;;;;4955824;28;19915;-79
2023/08/08 09:27:17;;;;;;;;;;;;;;;;;;4955801;29;20396;-82
2023/08/08 09:29:43;;;;;;;;;;;;;;;;;;4956103;29;19914;-82
2023/08/08 09:32:08;;;;;;;;;;;;;;;;;;4956956;28;19921;-88
2023/08/08 09:34:34;;;;;;;;;;;;;;;;;;4956372;28;19918;-85
2023/08/08 09:37:00;;;;;;;;;;;;;;;;;;4958078;28;19978;-85
2023/08/08 09:39:25;;;;;;;;;;;;;;;;;;4956753;28;19950;-86
2023/08/08 09:41:50;;;;;;;;;;;;;;;;;;4957108;28;19918;-89
2023/08/08 09:44:16;;;;;;;;;;;;;;;;;;4957041;29;20325;-86
2023/08/08 09:46:42;;;;;;;;;;;;;;;;;;4955920;28;20365;-91
2023/08/08 09:49:09;;;;;;;;;;;;;;;;;;4955937;28;19919;-89
2023/08/08 09:51:35;;;;;;;;;;;;;;;;;;4954665;29;19953;-87
2023/08/08 09:54:00;;;;;;;;;;;;;;;;;;4955150;28;19965;-85
2023/08/08 09:56:26;;;;;;;;;;;;;;;;;;4955868;28;19910;-92
2023/08/08 09:58:51;;;;;;;;;;;;;;;;;;4959170;28;19914;-89
2023/08/08 10:01:18;;;;;;;;;;;;;;;;;;4959721;28;19953;-87
2023/08/08 10:03:44;;;;;;;;;;;;;;;;;;4959531;29;19910;-89
2023/08/08 10:06:10;;;;;;;;;;;;;;;;;;4968392;28;19918;-87
2023/08/08 10:08:35;;;;;;;;;;;;;;;;;;4977288;28;20001;-86
2023/08/08 10:11:01;;;;;;;;;;;;;;;;;;4977504;28;19922;-87
2023/08/08 10:13:26;;;;;;;;;;;;;;;;;;4975986;28;19921;-88
2023/08/08 10:15:52;;;;;;;;;;;;;;;;;;4977616;28;19977;-92
2023/08/08 10:18:20;;;;;;;;;;;;;;;;;;4977202;28;19925;-85
2023/08/08 10:20:49;;;;;;;;;;;;;;;;;;4977491;28;19960;-88
2023/08/08 10:23:18;;;;;;;;;;;;;;;;;;4976020;28;19914;-87
2023/08/08 10:25:44;;;;;;;;;;;;;;;;;;4976999;28;19914;-90
2023/08/08 10:28:12;;;;;;;;;;;;;;;;;;4977591;28;19937;-93
2023/08/08 10:30:48;;;;;;;;;;;;;;;;;;4977291;28;19921;-89
2023/08/08 10:33:17;;;;;;;;;;;;;;;;;;4977415;28;20292;-89
2023/08/08 10:35:50;;;;;;;;;;;;;;;;;;4976934;28;19921;-86
2023/08/08 10:38:16;;;;;;;;;;;;;;;;;;4977883;28;19914;-88
2023/08/08 10:40:42;;;;;;;;;;;;;;;;;;4976897;28;19977;-86
2023/08/08 10:43:12;;;;;;;;;;;;;;;;;;4975514;28;19953;-90
2023/08/08 10:45:41;;;;;;;;;;;;;;;;;;4976916;28;19918;-88
2023/08/08 10:48:08;;;;;;;;;;;;;;;;;;4977148;28;19914;-89
2023/08/08 10:50:37;;;;;;;;;;;;;;;;;;4976931;28;19910;-90
2023/08/08 10:53:03;;;;;;;;;;;;;;;;;;4976690;28;19914;-90
2023/08/08 10:55:34;;;;;;;;;;;;;;;;;;4975883;28;19925;-85
2023/08/08 10:58:05;;;;;;;;;;;;;;;;;;4976828;28;19917;-89
2023/08/08 11:00:31;;;;;;;;;;;;;;;;;;4977021;28;19917;-91
2023/08/08 11:02:57;;;;;;;;;;;;;;;;;;4976534;28;19914;-87
2023/08/08 11:05:23;;;;;;;;;;;;;;;;;;4940318;28;1217259;-89
2023/08/08 11:07:49;;;;;;;;;;;;;;;;;;4996550;28;19980;-87
2023/08/08 11:10:14;;;;;;;;;;;;;;;;;;4979657;28;19920;-91
2023/08/08 11:12:40;;;;;;;;;;;;;;;;;;4996795;28;20005;-91
2023/08/08 11:15:05;;;;;;;;;;;;;;;;;;4997001;28;20001;-91
2023/08/08 11:17:31;;;;;;;;;;;;;;;;;;4979296;28;19914;-87
2023/08/08 11:19:57;;;;;;;;;;;;;;;;;;4979204;28;19928;-89
2023/08/08 11:22:25;;;;;;;;;;;;;;;;;;4996878;28;19928;-89
2023/08/08 11:24:51;;;;;;;;;;;;;;;;;;4979354;28;19914;-86
2023/08/08 11:27:17;;;;;;;;;;;;;;;;;;4996637;28;19913;-88
2023/08/08 11:29:50;;;;;;;;;;;;;;;;;;4978987;28;20315;-87
2023/08/08 11:32:15;;;;;;;;;;;;;;;;;;4997038;28;20361;-89
2023/08/08 11:34:41;;;;;;;;;;;;;;;;;;4979797;28;19968;-91
2023/08/08 11:37:06;;;;;;;;;;;;;;;;;;4981202;28;20312;-93
2023/08/08 11:39:31;;;;;;;;;;;;;;;;;;4980491;28;19944;-91
2023/08/08 11:41:57;;;;;;;;;;;;;;;;;;4979567;28;20008;-92
2023/08/08 11:44:22;;;;;;;;;;;;;;;;;;4979355;28;19960;-92
2023/08/08 11:46:48;;;;;;;;;;;;;;;;;;4996518;28;19918;-92
2023/08/08 16:57:11;;;;;;;;;;;;;;;;;;4931917;29;19989;-86
2023/08/08 16:59:37;;;;;;;;;;;;;;;;;;4937690;29;19953;-88
2023/08/08 17:02:03;;;;;;;;;;;;;;;;;;4937647;29;20376;-89
2023/08/08 17:04:28;;;;;;;;;;;;;;;;;;4929957;29;19915;-87
2023/08/08 17:06:53;;;;;;;;;;;;;;;;;;4936764;29;20278;-87
2023/08/08 17:09:19;;;;;;;;;;;;;;;;;;4937350;29;19919;-88
2023/08/08 17:11:44;;;;;;;;;;;;;;;;;;4937155;29;19916;-89
2023/08/08 17:14:09;;;;;;;;;;;;;;;;;;4936935;29;19922;-84
2023/08/08 17:16:35;;;;;;;;;;;;;;;;;;4937153;29;19922;-88
2023/08/08 17:19:00;;;;;;;;;;;;;;;;;;4935844;29;19915;-87
2023/08/08 17:21:25;;;;;;;;;;;;;;;;;;4936917;29;19914;-89
2023/08/08 17:23:51;;;;;;;;;;;;;;;;;;4936935;29;19915;-84
2023/08/08 17:26:16;;;;;;;;;;;;;;;;;;4937218;29;19921;-85
2023/08/08 17:28:41;;;;;;;;;;;;;;;;;;4937241;29;19915;-87
2023/08/08 17:31:07;;;;;;;;;;;;;;;;;;4936927;29;19911;-85
2023/08/08 17:33:32;;;;;;;;;;;;;;;;;;4936666;29;19914;-86
2023/08/08 17:35:57;;;;;;;;;;;;;;;;;;4937151;29;19981;-85
2023/08/08 17:38:23;;;;;;;;;;;;;;;;;;4937000;29;19910;-85
2023/08/08 17:40:48;;;;;;;;;;;;;;;;;;4937249;29;20021;-85
2023/08/08 17:43:14;;;;;;;;;;;;;;;;;;4936845;29;20005;-88
2023/08/08 17:45:39;;;;;;;;;;;;;;;;;;4936950;29;19915;-87
2023/08/08 17:48:05;;;;;;;;;;;;;;;;;;4935804;29;19922;-86
2023/08/08 17:50:30;;;;;;;;;;;;;;;;;;4936684;29;19911;-84
2023/08/08 17:52:56;;;;;;;;;;;;;;;;;;4937205;29;20305;-86
2023/08/08 17:55:21;;;;;;;;;;;;;;;;;;4936780;29;19915;-85
2023/08/08 17:57:47;;;;;;;;;;;;;;;;;;4946961;29;19923;-87
2023/08/08 18:00:12;;;;;;;;;;;;;;;;;;4955621;29;20013;-85
2023/08/08 18:02:38;;;;;;;;;;;;;;;;;;4955650;29;19910;-86
2023/08/08 18:05:04;;;;;;;;;;;;;;;;;;4955598;28;19915;-85
2023/08/08 18:07:29;;;;;;;;;;;;;;;;;;4955787;29;19914;-85
2023/08/08 18:09:55;;;;;;;;;;;;;;;;;;4955793;28;20329;-87
2023/08/08 18:12:20;;;;;;;;;;;;;;;;;;4955738;28;19914;-86
2023/08/08 18:14:45;;;;;;;;;;;;;;;;;;4955588;29;20329;-85
2023/08/08 18:17:11;;;;;;;;;;;;;;;;;;4955699;28;19919;-85
2023/08/08 18:19:36;;;;;;;;;;;;;;;;;;4958774;29;19941;-88
2023/08/08 18:22:02;;;;;;;;;;;;;;;;;;4959585;28;19915;-90
2023/08/08 18:24:27;;;;;;;;;;;;;;;;;;4959157;29;19914;-86
2023/08/08 18:26:53;;;;;;;;;;;;;;;;;;4959085;28;19961;-86
2023/08/08 18:29:18;;;;;;;;;;;;;;;;;;4959069;29;19958;-86
2023/08/08 18:31:43;;;;;;;;;;;;;;;;;;4959216;28;19949;-88
2023/08/08 18:34:09;;;;;;;;;;;;;;;;;;4960930;28;19914;-85
2023/08/08 18:36:34;;;;;;;;;;;;;;;;;;4958846;29;19915;-86
2023/08/08 18:39:00;;;;;;;;;;;;;;;;;;4959071;28;19922;-88
2023/08/08 18:41:25;;;;;;;;;;;;;;;;;;4959027;29;20440;-86
2023/08/08 18:43:51;;;;;;;;;;;;;;;;;;4958973;28;19921;-85
2023/08/08 18:46:18;;;;;;;;;;;;;;;;;;4958837;29;19914;-86
2023/08/08 18:48:44;;;;;;;;;;;;;;;;;;4958861;28;19918;-85
2023/08/08 18:51:09;;;;;;;;;;;;;;;;;;4958740;29;19922;-87
2023/08/08 18:53:36;;;;;;;;;;;;;;;;;;4957180;29;19922;-88
2023/08/08 18:56:01;;;;;;;;;;;;;;;;;;4958607;29;19914;-87
2023/08/08 18:58:27;;;;;;;;;;;;;;;;;;4958360;28;19966;-86
2023/08/08 19:00:52;;;;;;;;;;;;;;;;;;4958406;28;19915;-90
2023/08/08 19:03:18;;;;;;;;;;;;;;;;;;4958126;28;19973;-87
2023/08/08 19:05:43;;;;;;;;;;;;;;;;;;4958360;28;19954;-90
2023/08/08 19:08:08;;;;;;;;;;;;;;;;;;4958391;29;20365;-86
2023/08/08 19:10:34;;;;;;;;;;;;;;;;;;4958734;29;19915;-86
2023/08/08 19:12:59;;;;;;;;;;;;;;;;;;4957033;28;19914;-87
2023/08/08 19:15:25;;;;;;;;;;;;;;;;;;4958341;28;19914;-90
2023/08/08 19:17:50;;;;;;;;;;;;;;;;;;4960723;28;20058;-89
2023/08/08 19:20:16;;;;;;;;;;;;;;;;;;4957941;29;19915;-87
2023/08/08 19:22:41;;;;;;;;;;;;;;;;;;4958298;28;20292;-87
2023/08/08 19:25:07;;;;;;;;;;;;;;;;;;4957878;29;20274;-88
2023/08/08 19:27:32;;;;;;;;;;;;;;;;;;4956590;29;20388;-88
2023/08/08 19:29:58;;;;;;;;;;;;;;;;;;4957621;28;19921;-89
2023/08/08 19:32:23;;;;;;;;;;;;;;;;;;4957169;29;19985;-88
2023/08/08 19:34:49;;;;;;;;;;;;;;;;;;4956948;28;19918;-89
2023/08/08 19:37:14;;;;;;;;;;;;;;;;;;4958105;28;20325;-89
2023/08/08 19:39:39;;;;;;;;;;;;;;;;;;4957776;29;19919;-89
2023/08/08 19:42:05;;;;;;;;;;;;;;;;;;4957921;29;19914;-86
2023/08/08 19:44:30;;;;;;;;;;;;;;;;;;4957892;28;19918;-88
2023/08/08 19:46:56;;;;;;;;;;;;;;;;;;4957689;28;20350;-88
2023/08/08 19:49:21;;;;;;;;;;;;;;;;;;4956356;28;20381;-88
2023/08/08 19:51:46;;;;;;;;;;;;;;;;;;4956654;28;19914;-88
2023/08/08 19:54:12;;;;;;;;;;;;;;;;;;4957439;29;20292;-87
2023/08/08 19:56:37;;;;;;;;;;;;;;;;;;4957317;29;19918;-87
2023/08/08 19:59:03;;;;;;;;;;;;;;;;;;4956116;28;19922;-86
2023/08/08 20:01:29;;;;;;;;;;;;;;;;;;4940204;29;19918;-88
2023/08/08 20:03:55;;;;;;;;;;;;;;;;;;4957200;28;19977;-89
2023/08/08 20:06:20;;;;;;;;;;;;;;;;;;4955783;29;20353;-89
2023/08/08 20:08:45;;;;;;;;;;;;;;;;;;4956125;29;19965;-88
2023/08/08 20:11:11;;;;;;;;;;;;;;;;;;4957255;28;19914;-86
2023/08/08 20:13:36;;;;;;;;;;;;;;;;;;4955889;29;19914;-87
2023/08/08 20:16:01;;;;;;;;;;;;;;;;;;4957115;29;20285;-89
2023/08/08 20:18:27;;;;;;;;;;;;;;;;;;4957191;29;19914;-90
2023/08/08 20:20:52;;;;;;;;;;;;;;;;;;4956975;28;20377;-89
2023/08/08 20:23:18;;;;;;;;;;;;;;;;;;4957161;29;19925;-88
2023/08/08 20:25:43;;;;;;;;;;;;;;;;;;4955807;29;19922;-88
2023/08/08 20:28:09;;;;;;;;;;;;;;;;;;4955506;28;19918;-87
2023/08/08 20:30:34;;;;;;;;;;;;;;;;;;4955660;28;19914;-88
2023/08/08 20:33:00;;;;;;;;;;;;;;;;;;4956477;29;20009;-88
2023/08/08 20:35:26;;;;;;;;;;;;;;;;;;4956940;29;19914;-88
2023/08/08 20:37:51;;;;;;;;;;;;;;;;;;4955978;28;19915;-88
2023/08/08 20:40:17;;;;;;;;;;;;;;;;;;4956060;28;20333;-88
2023/08/08 20:42:42;;;;;;;;;;;;;;;;;;4954944;29;19914;-87
2023/08/08 20:45:08;;;;;;;;;;;;;;;;;;4956171;29;20312;-88
2023/08/08 20:47:33;;;;;;;;;;;;;;;;;;4956638;29;19918;-90
2023/08/08 20:49:59;;;;;;;;;;;;;;;;;;4955229;28;19918;-88
2023/08/08 20:52:24;;;;;;;;;;;;;;;;;;4956395;28;19914;-85
2023/08/08 20:54:49;;;;;;;;;;;;;;;;;;4956491;28;19961;-87
2023/08/08 20:57:15;;;;;;;;;;;;;;;;;;4956254;29;19918;-87
2023/08/08 20:59:42;;;;;;;;;;;;;;;;;;4955012;28;19914;-87
2023/08/08 21:02:07;;;;;;;;;;;;;;;;;;4956292;28;19914;-88
2023/08/08 21:04:33;;;;;;;;;;;;;;;;;;4954844;29;19918;-87
2023/08/08 21:06:58;;;;;;;;;;;;;;;;;;4955059;29;19922;-86
2023/08/08 21:09:25;;;;;;;;;;;;;;;;;;4938791;29;19915;-87
2023/08/08 21:11:51;;;;;;;;;;;;;;;;;;4956104;28;19958;-87
2023/08/08 21:14:16;;;;;;;;;;;;;;;;;;4938796;29;19973;-89
2023/08/08 21:16:42;;;;;;;;;;;;;;;;;;4954747;28;19919;-89
2023/08/08 21:19:08;;;;;;;;;;;;;;;;;;4954745;29;19918;-87
2023/08/08 21:21:33;;;;;;;;;;;;;;;;;;4954791;29;19922;-88
2023/08/08 21:23:59;;;;;;;;;;;;;;;;;;4954615;29;19997;-87
2023/08/08 21:26:24;;;;;;;;;;;;;;;;;;4955882;29;19914;-88
2023/08/08 21:28:49;;;;;;;;;;;;;;;;;;4956072;28;19954;-88
2023/08/08 21:31:15;;;;;;;;;;;;;;;;;;4956115;28;19950;-88
2023/08/08 21:33:41;;;;;;;;;;;;;;;;;;4955726;29;19914;-87
2023/08/08 21:36:06;;;;;;;;;;;;;;;;;;4955839;29;19917;-88
2023/08/08 21:38:33;;;;;;;;;;;;;;;;;;4955726;28;19914;-88
2023/08/08 21:40:59;;;;;;;;;;;;;;;;;;4954757;29;19915;-88
2023/08/08 21:43:25;;;;;;;;;;;;;;;;;;4955946;28;19918;-88
2023/08/08 21:45:51;;;;;;;;;;;;;;;;;;4955600;28;19915;-88
2023/08/08 21:48:16;;;;;;;;;;;;;;;;;;4955842;28;19925;-88
2023/08/08 21:50:42;;;;;;;;;;;;;;;;;;4955871;29;19914;-89
2023/08/08 21:53:07;;;;;;;;;;;;;;;;;;4958221;28;19914;-88
2023/08/08 21:55:32;;;;;;;;;;;;;;;;;;4959480;28;19922;-87
